createdAt,value
2016-10-07T00:04:47.263Z,1015.65
2016-10-07T00:09:43.978Z,1015.63
2016-10-07T00:14:40.455Z,1015.62
2016-10-07T00:19:40.122Z,1015.67
2016-10-07T00:24:35.972Z,1015.64
2016-10-07T00:29:32.446Z,1015.67
2016-10-07T00:34:28.800Z,1015.59
2016-10-07T00:39:25.973Z,1015.66
2016-10-07T00:44:22.441Z,1015.69
2016-10-07T00:49:18.790Z,1015.62
2016-10-07T00:54:16.515Z,1015.53
2016-10-07T00:59:13.064Z,1015.57
2016-10-07T01:04:09.501Z,1015.52
2016-10-07T01:09:06.178Z,1015.59
2016-10-07T01:14:02.103Z,1015.52
2016-10-07T01:18:58.838Z,1015.39
2016-10-07T01:23:55.403Z,1015.48
2016-10-07T01:28:51.435Z,1015.46
2016-10-07T01:33:48.204Z,1015.48
2016-10-07T01:38:44.792Z,1015.44
2016-10-07T01:43:41.443Z,1015.41
2016-10-07T01:48:37.970Z,1015.35
2016-10-07T01:53:34.424Z,1015.26
2016-10-07T01:58:31.328Z,1015.19
2016-10-07T02:03:27.919Z,1015.06
2016-10-07T02:08:25.670Z,1015.13
2016-10-07T02:13:22.016Z,1015.07
2016-10-07T02:18:18.775Z,1015.06
2016-10-07T02:23:15.366Z,1015.04
2016-10-07T02:28:11.775Z,1014.93
2016-10-07T02:33:08.296Z,1014.92
2016-10-07T02:38:04.874Z,1015.08
2016-10-07T02:43:02.162Z,1015.04
2016-10-07T02:47:59.042Z,1014.96
2016-10-07T02:52:55.358Z,1015.00
2016-10-07T02:57:51.829Z,1015.00
2016-10-07T03:02:48.157Z,1014.89
2016-10-07T03:07:44.660Z,1014.81
2016-10-07T03:12:41.217Z,1014.90
2016-10-07T03:17:37.759Z,1014.81
2016-10-07T03:22:34.414Z,1014.82
2016-10-07T03:27:30.743Z,1014.90
2016-10-07T03:32:27.484Z,1014.84
2016-10-07T03:37:24.294Z,1014.93
2016-10-07T03:42:20.690Z,1014.75
2016-10-07T03:47:17.168Z,1014.74
2016-10-07T03:52:13.594Z,1014.80
2016-10-07T03:57:10.399Z,1014.75
2016-10-07T04:02:07.072Z,1014.82
2016-10-07T04:07:03.256Z,1014.80
2016-10-07T04:12:00.448Z,1014.71
2016-10-07T04:16:56.941Z,1014.80
2016-10-07T04:21:53.961Z,1014.73
2016-10-07T04:26:51.114Z,1014.71
2016-10-07T04:31:47.270Z,1014.71
2016-10-07T04:36:43.872Z,1014.73
2016-10-07T04:41:40.268Z,1014.79
2016-10-07T04:46:36.950Z,1014.60
2016-10-07T04:51:33.401Z,1014.58
2016-10-07T04:56:30.056Z,1014.59
2016-10-07T05:01:26.808Z,1014.60
2016-10-07T05:06:23.182Z,1014.69
2016-10-07T05:11:19.598Z,1014.77
2016-10-07T05:16:17.068Z,1014.80
2016-10-07T05:21:13.713Z,1014.73
2016-10-07T05:26:10.209Z,1014.70
2016-10-07T05:31:06.839Z,1014.71
2016-10-07T05:36:03.083Z,1014.75
2016-10-07T05:40:59.674Z,1014.71
2016-10-07T05:45:56.296Z,1014.66
2016-10-07T05:50:52.801Z,1014.69
2016-10-07T05:55:50.328Z,1014.74
2016-10-07T06:00:46.900Z,1014.65
2016-10-07T06:05:43.604Z,1014.69
2016-10-07T06:10:40.416Z,1014.64
2016-10-07T06:15:36.947Z,1014.73
2016-10-07T06:20:33.376Z,1014.78
2016-10-07T06:25:30.054Z,1014.87
2016-10-07T06:30:26.406Z,1014.86
2016-10-07T06:35:23.857Z,1014.85
2016-10-07T06:40:20.314Z,1014.85
2016-10-07T06:45:16.975Z,1014.90
2016-10-07T06:50:13.593Z,1014.87
2016-10-07T06:55:10.251Z,1014.89
2016-10-07T07:00:06.753Z,1014.93
2016-10-07T07:05:03.050Z,1014.88
2016-10-07T07:10:00.356Z,1014.88
2016-10-07T07:14:56.954Z,1014.98
2016-10-07T07:19:53.060Z,1014.89
2016-10-07T07:24:50.313Z,1014.93
2016-10-07T07:29:46.817Z,1014.86
2016-10-07T07:34:43.757Z,1014.93
2016-10-07T07:39:40.410Z,1014.99
2016-10-07T07:44:37.289Z,1014.99
2016-10-07T07:49:34.261Z,1014.97
2016-10-07T07:54:31.061Z,1015.00
2016-10-07T07:59:27.623Z,1014.96
2016-10-07T08:04:24.687Z,1014.97
2016-10-07T08:09:21.272Z,1015.03
2016-10-07T08:14:17.982Z,1015.02
2016-10-07T08:19:14.329Z,1015.16
2016-10-07T08:24:10.717Z,1015.22
2016-10-07T08:29:07.766Z,1015.13
2016-10-07T08:34:04.714Z,1015.23
2016-10-07T08:39:01.418Z,1015.22
2016-10-07T08:43:59.207Z,1015.21
2016-10-07T08:48:55.766Z,1015.18
2016-10-07T08:53:52.009Z,1015.20
2016-10-07T08:58:48.858Z,1015.20
2016-10-07T09:03:45.926Z,1015.26
2016-10-07T09:08:42.313Z,1015.31
2016-10-07T09:13:39.717Z,1015.20
2016-10-07T09:18:35.860Z,1015.28
2016-10-07T09:23:32.415Z,1015.22
2016-10-07T09:28:28.746Z,1015.27
2016-10-07T09:33:25.379Z,1015.31
2016-10-07T09:38:22.202Z,1015.33
2016-10-07T09:43:19.105Z,1015.32
2016-10-07T09:48:16.273Z,1015.35
2016-10-07T09:53:12.912Z,1015.40
2016-10-07T09:58:09.508Z,1015.35
2016-10-07T10:03:06.101Z,1015.28
2016-10-07T10:08:04.108Z,1015.40
2016-10-07T10:13:00.933Z,1015.36
2016-10-07T10:17:58.232Z,1015.41
2016-10-07T10:22:54.543Z,1015.40
2016-10-07T10:27:51.286Z,1015.33
2016-10-07T10:32:48.042Z,1015.43
2016-10-07T10:37:45.100Z,1015.27
2016-10-07T10:42:42.029Z,1015.22
2016-10-07T10:47:39.250Z,1015.10
2016-10-07T10:52:36.939Z,1015.21
2016-10-07T10:57:34.833Z,1015.22
2016-10-07T11:02:32.217Z,1015.16
2016-10-07T11:07:28.919Z,1015.23
2016-10-07T11:12:25.016Z,1015.22
2016-10-07T11:17:22.913Z,1015.27
2016-10-07T11:22:24.354Z,1015.19
2016-10-07T11:27:26.569Z,1015.22
2016-10-07T11:32:24.646Z,1015.16
2016-10-07T11:37:16.786Z,1015.13
2016-10-07T11:42:19.093Z,1015.01
2016-10-07T11:47:12.941Z,1015.01
2016-10-07T11:52:08.735Z,1015.03
2016-10-07T11:57:05.179Z,1014.86
2016-10-07T12:02:01.716Z,1014.84
2016-10-07T12:06:58.066Z,1014.91
2016-10-07T12:11:54.706Z,1014.89
2016-10-07T12:16:51.454Z,1014.90
2016-10-07T12:21:48.602Z,1014.83
2016-10-07T12:26:44.345Z,1014.86
2016-10-07T12:31:40.574Z,1014.74
2016-10-07T12:36:37.419Z,1014.71
2016-10-07T12:41:34.225Z,1014.74
2016-10-07T12:46:31.189Z,1014.69
2016-10-07T12:51:27.921Z,1014.67
2016-10-07T12:56:24.744Z,1014.56
2016-10-07T13:01:23.024Z,1014.54
2016-10-07T13:06:18.919Z,1014.67
2016-10-07T13:11:15.054Z,1014.55
2016-10-07T13:16:11.578Z,1014.64
2016-10-07T13:21:07.996Z,1014.50
2016-10-07T13:26:04.107Z,1014.60
2016-10-07T13:31:00.373Z,1014.58
2016-10-07T13:35:56.924Z,1014.53
2016-10-07T13:40:53.053Z,1014.52
2016-10-07T13:45:50.928Z,1014.55
2016-10-07T13:50:47.372Z,1014.46
2016-10-07T13:55:43.803Z,1014.43
2016-10-07T14:00:40.373Z,1014.37
2016-10-07T14:05:37.370Z,1014.39
2016-10-07T14:10:33.964Z,1014.41
2016-10-07T14:15:30.875Z,1014.36
2016-10-07T14:20:27.659Z,1014.31
2016-10-07T14:25:25.095Z,1014.36
2016-10-07T14:30:21.683Z,1014.43
2016-10-07T14:35:18.708Z,1014.32
2016-10-07T14:40:15.380Z,1014.34
2016-10-07T14:45:12.618Z,1014.38
2016-10-07T14:50:09.002Z,1014.34
2016-10-07T14:55:05.504Z,1014.26
2016-10-07T15:00:02.992Z,1014.18
2016-10-07T15:04:59.325Z,1014.19
2016-10-07T15:09:55.759Z,1014.16
2016-10-07T15:14:52.862Z,1014.16
2016-10-07T15:19:49.063Z,1014.12
2016-10-07T15:24:45.431Z,1014.14
2016-10-07T15:29:41.910Z,1014.20
2016-10-07T15:34:38.448Z,1014.35
2016-10-07T15:39:35.227Z,1014.29
2016-10-07T15:44:31.685Z,1014.29
2016-10-07T15:49:28.100Z,1014.41
2016-10-07T15:54:28.561Z,1014.33
2016-10-07T15:59:24.319Z,1014.36
2016-10-07T16:04:20.945Z,1014.40
2016-10-07T16:09:17.393Z,1014.41
2016-10-07T16:14:13.631Z,1014.40
2016-10-07T16:19:10.381Z,1014.42
2016-10-07T16:24:06.813Z,1014.35
2016-10-07T16:29:03.388Z,1014.46
2016-10-07T16:33:59.774Z,1014.40
2016-10-07T16:38:56.475Z,1014.48
2016-10-07T16:43:53.049Z,1014.48
2016-10-07T16:48:49.434Z,1014.51
2016-10-07T16:53:46.009Z,1014.71
2016-10-07T16:58:42.403Z,1014.68
2016-10-07T17:03:39.551Z,1014.77
2016-10-07T17:08:35.970Z,1014.68
2016-10-07T17:13:32.080Z,1014.78
2016-10-07T17:18:29.043Z,1014.78
2016-10-07T17:23:25.087Z,1014.80
2016-10-07T17:28:21.817Z,1014.91
2016-10-07T17:33:18.658Z,1014.86
2016-10-07T17:38:15.313Z,1014.87
2016-10-07T17:43:12.252Z,1014.91
2016-10-07T17:48:08.370Z,1015.01
2016-10-07T17:53:05.229Z,1014.83
2016-10-07T17:58:01.487Z,1014.90
2016-10-07T18:02:57.723Z,1014.94
2016-10-07T18:07:54.168Z,1014.93
2016-10-07T18:12:50.798Z,1014.95
2016-10-07T18:17:47.238Z,1015.02
2016-10-07T18:22:43.745Z,1014.94
2016-10-07T18:27:40.543Z,1015.06
2016-10-07T18:32:37.091Z,1015.10
2016-10-07T18:37:33.827Z,1015.20
2016-10-07T18:42:30.484Z,1015.22
2016-10-07T18:47:27.026Z,1015.33
2016-10-07T18:52:23.517Z,1015.23
2016-10-07T18:57:20.120Z,1015.31
2016-10-07T19:02:17.078Z,1015.27
2016-10-07T19:07:13.720Z,1015.29
2016-10-07T19:12:10.355Z,1015.29
2016-10-07T19:17:06.740Z,1015.28
2016-10-07T19:22:03.130Z,1015.25
2016-10-07T19:26:59.605Z,1015.25
2016-10-07T19:31:56.675Z,1015.25
2016-10-07T19:36:53.184Z,1015.24
2016-10-07T19:41:49.712Z,1015.19
2016-10-07T19:46:48.897Z,1015.21
2016-10-07T19:51:44.706Z,1015.28
2016-10-07T19:56:41.664Z,1015.36
2016-10-07T20:01:38.227Z,1015.31
2016-10-07T20:06:35.018Z,1015.38
2016-10-07T20:11:32.868Z,1015.35
2016-10-07T20:16:29.621Z,1015.40
2016-10-07T20:21:26.019Z,1015.39
2016-10-07T20:26:22.637Z,1015.38
2016-10-07T20:31:19.112Z,1015.38
2016-10-07T20:36:15.385Z,1015.42
2016-10-07T20:41:12.431Z,1015.36
2016-10-07T20:46:08.728Z,1015.36
2016-10-07T20:51:05.418Z,1015.47
2016-10-07T20:56:01.883Z,1015.46
2016-10-07T21:00:58.950Z,1015.48
2016-10-07T21:05:55.795Z,1015.46
2016-10-07T21:10:52.356Z,1015.55
2016-10-07T21:15:48.857Z,1015.51
2016-10-07T21:20:45.668Z,1015.47
2016-10-07T21:25:42.237Z,1015.47
2016-10-07T21:30:38.752Z,1015.47
2016-10-07T21:35:34.798Z,1015.43
2016-10-07T21:40:31.241Z,1015.46
2016-10-07T21:45:28.148Z,1015.49
2016-10-07T21:50:24.332Z,1015.50
2016-10-07T21:55:21.202Z,1015.50
2016-10-07T22:00:17.754Z,1015.32
2016-10-07T22:05:14.120Z,1015.36
2016-10-07T22:10:10.678Z,1015.42
2016-10-07T22:15:07.455Z,1015.48
2016-10-07T22:20:03.839Z,1015.36
2016-10-07T22:25:00.227Z,1015.40
2016-10-07T22:29:57.064Z,1015.46
2016-10-07T22:39:58.385Z,1015.36
2016-10-07T22:44:54.786Z,1015.39
2016-10-07T22:49:51.422Z,1015.45
2016-10-07T22:54:47.803Z,1015.56
2016-10-07T22:59:47.534Z,1015.56
2016-10-07T23:04:43.409Z,1015.55
2016-10-07T23:09:40.099Z,1015.69
2016-10-07T23:14:37.332Z,1015.58
2016-10-07T23:19:33.811Z,1015.72
2016-10-07T23:24:30.158Z,1015.69
2016-10-07T23:29:26.315Z,1015.78
2016-10-07T23:34:22.936Z,1015.77
2016-10-07T23:39:19.245Z,1015.75
2016-10-07T23:44:15.976Z,1015.78
2016-10-07T23:49:12.249Z,1015.85
2016-10-07T23:54:08.708Z,1015.73
2016-10-07T23:59:05.957Z,1015.82
